Flight Track Log - Related Links

Times and Time Zones

All times are in EDT time to prevent confusion due to time zone crossing. See the XOJ578 flight status page for this flight to view local times or setup timezone preferences in your user account.

Time Position Orientation Groundspeed Altitude Reporting Facility
EDT Latitude Longitude Course Direction KTS MPH feet Rate Location/Type
Tue 03:06:43 PM 34.1833 -118.4833 116° Southeast 186 214 1,700  Level Southern California TRACON
Tue 03:07:49 PM 34.1633 -118.4331 116° Southeast 220 253 4,700 3,260 Climbing Los Angeles Center
Tue 03:08:50 PM 34.2353 -118.4197 North 239 275 8,600 3,317 Climbing Los Angeles Center
Tue 03:09:52 PM 34.3064 -118.4342 350° North 254 292 11,500 2,371 Climbing Los Angeles Center
Tue 03:10:54 PM 34.3883 -118.3819 28° Northeast 320 368 13,500 2,129 Climbing Los Angeles Center
Tue 03:11:56 PM 34.4753 -118.3142 33° Northeast 364 419 15,900 2,613 Climbing Los Angeles Center
Tue 03:12:58 PM 34.5411 -118.2114 52° Northeast 382 440 18,900 2,710 Climbing Los Angeles Center
Tue 03:14:00 PM 34.6136 -118.0950 53° Northeast 390 449 21,500 2,371 Climbing Los Angeles Center
Tue 03:15:02 PM 34.6428 -117.9597 75° East 418 481 23,800 2,226 Climbing Los Angeles Center
Tue 03:16:04 PM 34.6575 -117.8181 83° East 424 488 26,100 2,081 Climbing Los Angeles Center
Tue 03:17:06 PM 34.6872 -117.6722 76° East 447 514 28,100 1,887 Climbing Los Angeles Center
Tue 03:18:08 PM 34.7253 -117.5250 73° East 460 529 30,000 1,935 Climbing Los Angeles Center
Tue 03:19:10 PM 34.7708 -117.3431 73° East 476 548 32,100 1,790 Climbing Los Angeles Center
Tue 03:20:12 PM 34.8100 -117.1875 73° East 486 559 33,700 1,452 Climbing Los Angeles Center
Tue 03:21:14 PM 34.8494 -117.0278 73° East 497 572 35,100 1,220 Climbing Los Angeles Center
Tue 03:22:15 PM 34.9192 -116.8817 60° Northeast 506 582 36,200 1,220 Climbing Los Angeles Center
Tue 03:23:17 PM 35.0294 -116.7239 49° Northeast 510 587 37,600 1,355 Climbing Los Angeles Center
Tue 03:24:19 PM 35.1197 -116.5914 50° Northeast 512 589 39,000 1,306 Climbing Los Angeles Center
Tue 03:25:21 PM 35.2081 -116.4625 50° Northeast 503 579 40,300 968 Climbing Los Angeles Center
Tue 03:26:23 PM 35.2950 -116.3344 50° Northeast 493 567 41,000 339 Climbing Los Angeles Center
Tue 03:27:25 PM 35.3844 -116.2019 50° Northeast 506 582 41,000  Level Los Angeles Center
Tue 03:28:27 PM 35.4775 -116.0661 50° Northeast 524 603 41,000  Level Los Angeles Center
Tue 03:29:28 PM 35.5883 -115.9014 50° Northeast 524 603 41,000  Level Los Angeles Center
Tue 03:30:30 PM 35.6706 -115.7797 50° Northeast 523 602 41,000  Level Los Angeles Center
Tue 03:31:32 PM 35.7789 -115.6125 51° Northeast 524 603 41,000  Level Los Angeles Center
Tue 03:32:34 PM 35.8433 -115.4506 64° Northeast 531 611 41,000  Level Los Angeles Center
Tue 03:33:36 PM 35.9031 -115.2856 66° East 533 613 41,000  Level Los Angeles Center
Tue 03:34:37 PM 35.9478 -115.1561 67° East 521 600 41,000  Level Los Angeles Center
Tue 03:35:40 PM 36.0175 -114.9569 67° East 528 608 41,000  Level Los Angeles Center
Tue 03:36:41 PM 36.0761 -114.7914 66° East 529 609 41,000  Level Los Angeles Center
Tue 03:37:43 PM 36.1453 -114.5925 67° East 528 608 41,000  Level Los Angeles Center
Tue 03:38:45 PM 36.2028 -114.4269 67° East 527 606 41,000  Level Los Angeles Center
Tue 03:39:47 PM 36.2597 -114.2622 67° East 523 602 41,000  Level Los Angeles Center
Tue 03:40:49 PM 36.3153 -114.0967 67° East 521 600 41,000  Level Los Angeles Center
Tue 03:41:51 PM 36.3728 -113.9317 67° East 522 601 41,000  Level Los Angeles Center
Tue 03:42:53 PM 36.4292 -113.7647 67° East 524 603 41,000  Level Los Angeles Center
Tue 03:43:54 PM 36.4961 -113.5644 67° East 524 603 41,000  Level Los Angeles Center
Tue 03:44:56 PM 36.5506 -113.4058 67° East 524 603 41,000  Level Los Angeles Center
Tue 03:45:58 PM 36.6058 -113.2378 68° East 525 604 41,000  Level Los Angeles Center
Tue 03:47:00 PM 36.6608 -113.0706 68° East 526 605 41,000  Level Los Angeles Center
Tue 03:48:02 PM 36.7153 -112.9033 68° East 525 604 41,000  Level Los Angeles Center
Tue 03:49:04 PM 36.7817 -112.7025 68° East 525 604 41,000  Level Los Angeles Center
Tue 03:50:06 PM 36.8364 -112.5350 68° East 525 604 41,000  Level Los Angeles Center
Tue 03:51:08 PM 36.8894 -112.3672 68° East 524 603 41,000  Level Los Angeles Center
Tue 03:52:10 PM 36.9447 -112.2003 67° East 524 603 41,000  Level Los Angeles Center
Tue 03:53:12 PM 36.9983 -112.0317 68° East 525 604 41,000  Level Los Angeles Center
Tue 03:54:13 PM 37.0633 -111.8289 68° East 526 605 41,000  Level Los Angeles Center
Tue 03:55:15 PM 37.1167 -111.6600 68° East 526 605 41,000  Level Los Angeles Center
Tue 03:55:48 PM 37.1392 -111.5908 68° East 528 608 41,000  Level Denver Center
Tue 03:56:49 PM 37.2000 -111.3906 69° East 519 597 41,000  Level Denver Center
Tue 03:57:51 PM 37.2522 -111.2206 69° East 525 604 41,000  Level Denver Center
Tue 03:58:53 PM 37.3053 -111.0503 69° East 525 604 41,000  Level Denver Center
Tue 03:59:55 PM 37.3583 -110.8786 69° East 528 608 41,000  Level Denver Center
Tue 04:00:56 PM 37.4086 -110.7083 70° East 524 603 41,000  Level Denver Center
Tue 04:01:58 PM 37.4617 -110.5367 69° East 526 605 41,000  Level Denver Center
Tue 04:03:00 PM 37.5197 -110.3444 69° East 522 601 41,000  Level Denver Center
Tue 04:04:01 PM 37.5697 -110.1786 69° East 526 605 41,000  Level Denver Center
Tue 04:05:03 PM 37.6256 -109.9856 70° East 523 602 41,000  Level Denver Center
Tue 04:06:05 PM 37.6747 -109.8214 69° East 522 601 41,000  Level Denver Center
Tue 04:07:07 PM 37.7311 -109.6294 70° East 520 598 41,000  Level Denver Center
Tue 04:08:08 PM 37.7792 -109.4650 70° East 521 600 41,000  Level Denver Center
Tue 04:09:10 PM 37.8267 -109.3011 70° East 518 596 41,000  Level Denver Center
Tue 04:10:12 PM 37.8817 -109.1086 70° East 520 598 41,000  Level Denver Center
Tue 04:11:14 PM 37.9294 -108.9439 70° East 520 598 41,000  Level Denver Center
Tue 04:12:15 PM 37.9831 -108.7506 71° East 520 598 41,000  Level Denver Center
Tue 04:13:17 PM 38.0297 -108.5844 70° East 520 598 41,000  Level Denver Center
Tue 04:14:19 PM 38.0814 -108.4050 70° East 517 595 41,000  Level Denver Center
Tue 04:15:21 PM 38.1267 -108.2397 71° East 518 596 41,000  Level Denver Center
Tue 04:16:22 PM 38.1803 -108.0467 70° East 521 600 41,000  Level Denver Center
Tue 04:17:24 PM 38.2253 -107.8808 71° East 520 598 41,000  Level Denver Center
Tue 04:18:26 PM 38.2772 -107.6889 71° East 517 595 41,000  Level Denver Center
Tue 04:19:28 PM 38.3289 -107.5258 68° East 521 600 41,000  Level Denver Center
Tue 04:20:29 PM 38.3975 -107.3411 65° Northeast 518 596 41,000  Level Denver Center
Tue 04:21:31 PM 38.4550 -107.1836 65° Northeast 515 593 41,000  Level Denver Center
Tue 04:22:33 PM 38.5222 -106.9972 65° Northeast 518 596 41,000  Level Denver Center
Tue 04:23:35 PM 38.5783 -106.8378 66° East 516 594 41,000  Level Denver Center
Tue 04:24:36 PM 38.6339 -106.6767 66° East 518 596 41,000  Level Denver Center
Tue 04:25:38 PM 38.6992 -106.4892 66° East 518 596 41,000  Level Denver Center
Tue 04:26:40 PM 38.7525 -106.3264 67° East 519 597 41,000 49 Level Denver Center
Tue 04:27:41 PM 38.8111 -106.1506 67° East 515 593 41,100  Climbing Denver Center
Tue 04:28:43 PM 38.8547 -105.9783 72° East 513 590 41,000 -48 Descending Denver Center
Tue 04:29:45 PM 38.8964 -105.8069 73° East 506 582 41,000  Level Denver Center
Tue 04:30:46 PM 38.9375 -105.5967 76° East 512 589 41,000  Level Denver Center
Tue 04:31:48 PM 38.9578 -105.4164 82° East 514 592 41,000  Level Denver Center
Tue 04:32:49 PM 38.9781 -105.2722 80° East 521 600 41,000  Level Denver Center
Tue 04:33:52 PM 39.0081 -105.0603 75° East 508 585 41,000  Level Denver Center
Tue 04:34:00 PM 39.0178 -105.0751 75° East  Level FlightAware Approximate
Tue 04:34:53 PM 39.0347 -104.8844 79° East 506 582 41,000  Level Denver Center
Tue 04:35:55 PM 39.0681 -104.7086 76° East 510 587 41,000  Level Denver Center
Tue 04:36:57 PM 39.1083 -104.4989 76° East 508 585 41,000  Level Denver Center
Tue 04:37:58 PM 39.1397 -104.3236 77° East 509 586 41,000  Level Denver Center
Tue 04:39:00 PM 39.1739 -104.1500 76° East 506 582 41,000  Level Denver Center
Tue 04:40:02 PM 39.2144 -103.9781 73° East 504 580 41,000  Level Denver Center
Tue 04:41:03 PM 39.2539 -103.8047 74° East 506 582 41,000  Level Denver Center
Tue 04:42:05 PM 39.2867 -103.6672 73° East 505 581 41,000  Level Denver Center
Tue 04:43:07 PM 39.3422 -103.4236 73° East 507 583 41,000  Level Denver Center
Tue 04:44:21 PM 39.3817 -103.2483 74° East 510 587 41,000  Level Denver Center
Tue 04:45:23 PM 39.4289 -103.0386 74° East 510 587 41,000  Level Denver Center
Tue 04:46:25 PM 39.4683 -102.8622 74° East 511 588 41,000 390 Level Denver Center
Tue 04:47:26 PM 39.5067 -102.6867 74° East 511 588 41,800 829 Climbing Denver Center
Tue 04:48:28 PM 39.5550 -102.5194 69° East 499 574 42,700 871 Climbing Denver Center
Tue 04:49:30 PM 39.6103 -102.3356 69° East 493 567 43,600 726 Climbing Denver Center
Tue 04:50:32 PM 39.6633 -102.1522 69° East 488 562 44,200 532 Climbing Denver Center
Tue 04:51:34 PM 39.7097 -101.9953 69° East 487 560 44,700 341 Climbing Denver Center
Tue 04:52:35 PM 39.7544 -101.8394 69° East 484 557 44,900 146 Climbing Denver Center
Tue 04:53:37 PM 39.8058 -101.6531 70° East 489 563 45,000 48 Climbing Denver Center
Tue 04:54:39 PM 39.8497 -101.4914 70° East 495 570 45,000  Level Denver Center
Tue 04:55:41 PM 39.9019 -101.2997 70° East 503 579 45,000  Level Denver Center
Tue 04:56:43 PM 39.9489 -101.1358 69° East 505 581 45,000  Level Denver Center
Tue 04:57:44 PM 40.0036 -100.9431 70° East 509 586 45,000  Level Denver Center
Tue 04:58:46 PM 40.0503 -100.7767 70° East 512 589 45,000  Level Denver Center
Tue 04:59:48 PM 40.1025 -100.5825 71° East 511 588 45,000  Level Denver Center
Tue 05:01:02 PM 40.1431 -100.4164 72° East 506 582 45,000  Level Denver Center
Tue 05:02:04 PM 40.1986 -100.1950 72° East 504 580 45,000  Level Denver Center
Tue 05:03:06 PM 40.2389 -100.0286 72° East 504 580 45,000  Level Denver Center
Tue 05:04:08 PM 40.2781 -99.8475 74° East 506 582 45,000  Level Denver Center
Tue 05:05:10 PM 40.3178 -99.6711 73° East 507 583 45,000  Level Denver Center
Tue 05:06:11 PM 40.3592 -99.4564 76° East 506 582 45,000  Level Denver Center
Tue 05:07:13 PM 40.3903 -99.2778 77° East 506 582 45,000  Level Denver Center
Tue 05:07:44 PM 40.4042 -99.2078 75° East 507 583 45,000  Level Minneapolis Center
Tue 05:08:46 PM 40.4417 -98.9917 77° East 508 585 45,000  Level Minneapolis Center
Tue 05:09:48 PM 40.4725 -98.8117 77° East 508 585 45,000  Level Minneapolis Center
Tue 05:10:50 PM 40.5031 -98.6319 77° East 508 585 45,000  Level Minneapolis Center
Tue 05:11:52 PM 40.5283 -98.4883 77° East 508 585 45,000  Level Minneapolis Center
Tue 05:12:54 PM 40.5639 -98.2719 78° East 508 585 45,000  Level Minneapolis Center
Tue 05:13:57 PM 40.5953 -98.0931 77° East 507 583 45,000  Level Minneapolis Center
Tue 05:14:59 PM 40.6308 -97.8753 78° East 509 586 45,000  Level Minneapolis Center
Tue 05:16:01 PM 40.6603 -97.6947 78° East 508 585 45,000  Level Minneapolis Center
Tue 05:17:03 PM 40.6897 -97.5136 78° East 507 583 45,000  Level Minneapolis Center
Tue 05:18:05 PM 40.7211 -97.3200 78° East 509 586 45,000  Level Minneapolis Center
Tue 05:19:09 PM 40.7500 -97.1383 78° East 508 585 45,000  Level Minneapolis Center
Tue 05:20:11 PM 40.7781 -96.9553 79° East 510 587 45,000  Level Minneapolis Center
Tue 05:21:13 PM 40.8067 -96.7733 78° East 510 587 45,000  Level Minneapolis Center
Tue 05:22:15 PM 40.8406 -96.5542 78° East 509 586 45,000  Level Minneapolis Center
Tue 05:23:17 PM 40.8681 -96.3733 79° East 507 583 45,000  Level Minneapolis Center
Tue 05:24:19 PM 40.8947 -96.1928 79° East 507 583 45,000  Level Minneapolis Center
Tue 05:25:21 PM 40.9225 -96.0131 78° East 505 581 45,000  Level Minneapolis Center
Tue 05:26:23 PM 40.9475 -95.8314 80° East 506 582 45,000  Level Minneapolis Center
Tue 05:27:25 PM 40.9792 -95.6153 79° East 505 581 45,000  Level Minneapolis Center
Tue 05:28:27 PM 41.0061 -95.4325 79° East 508 585 45,000  Level Minneapolis Center
Tue 05:29:29 PM 41.0325 -95.2511 79° East 506 582 45,000  Level Minneapolis Center
Tue 05:30:31 PM 41.0581 -95.0697 79° East 505 581 45,000  Level Minneapolis Center
Tue 05:31:33 PM 41.0825 -94.8861 80° East 506 582 45,000  Level Minneapolis Center
Tue 05:32:36 PM 41.1131 -94.6669 79° East 506 582 45,000  Level Minneapolis Center
Tue 05:33:38 PM 41.1378 -94.4808 80° East 507 583 45,000  Level Minneapolis Center
Tue 05:34:40 PM 41.1622 -94.3000 80° East 507 583 45,000  Level Minneapolis Center
Tue 05:35:42 PM 41.1853 -94.1144 81° East 507 583 45,000  Level Minneapolis Center
Tue 05:36:44 PM 41.2100 -93.9306 80° East 508 585 45,000  Level Minneapolis Center
Tue 05:37:46 PM 41.2347 -93.7453 80° East 510 587 45,000  Level Minneapolis Center
Tue 05:38:50 PM 41.2625 -93.5244 80° East 510 587 45,000  Level Minneapolis Center
Tue 05:39:52 PM 41.2847 -93.3419 81° East 507 583 45,000  Level Minneapolis Center
Tue 05:40:54 PM 41.3075 -93.1586 81° East 505 581 45,000  Level Minneapolis Center
Tue 05:41:56 PM 41.3289 -92.9744 81° East 506 582 45,000  Level Minneapolis Center
Tue 05:42:58 PM 41.3511 -92.7911 81° East 505 581 45,000  Level Minneapolis Center
Tue 05:44:00 PM 41.3783 -92.5711 81° East 504 580 45,000  Level Minneapolis Center
Tue 05:45:02 PM 41.3983 -92.3889 82° East 502 578 45,000  Level Minneapolis Center
Tue 05:46:09 PM 41.4219 -92.1814 81° East 510 587 45,000  Level Chicago Center
Tue 05:47:11 PM 41.4422 -91.9989 82° East 506 582 45,000  Level Chicago Center
Tue 05:48:13 PM 41.4622 -91.8142 82° East 510 587 45,000  Level Chicago Center
Tue 05:49:15 PM 41.4861 -91.5928 82° East 511 588 45,000  Level Chicago Center
Tue 05:50:17 PM 41.5058 -91.4086 82° East 510 587 45,000  Level Chicago Center
Tue 05:51:20 PM 41.5256 -91.2231 82° East 511 588 45,000  Level Chicago Center
Tue 05:52:22 PM 41.5442 -91.0378 82° East 511 588 45,000  Level Chicago Center
Tue 05:53:24 PM 41.5633 -90.8531 82° East 511 588 45,000  Level Chicago Center
Tue 05:54:26 PM 41.5853 -90.6303 82° East 510 587 45,000  Level Chicago Center
Tue 05:55:28 PM 41.6042 -90.4347 83° East 509 586 45,000  Level Chicago Center
Tue 05:56:30 PM 41.6231 -90.2464 82° East 510 587 45,000  Level Chicago Center
Tue 05:57:32 PM 41.6408 -90.0589 83° East 508 585 45,000  Level Chicago Center
Tue 05:58:34 PM 41.6589 -89.8706 83° East 509 586 45,000  Level Chicago Center
Tue 05:59:36 PM 41.6761 -89.6850 83° East 505 581 45,000  Level Chicago Center
Tue 06:00:39 PM 41.6939 -89.4858 83° East 504 580 45,000  Level Chicago Center
Tue 06:01:41 PM 41.7103 -89.2994 83° East 506 582 45,000  Level Chicago Center
Tue 06:02:43 PM 41.7247 -89.1128 84° East 508 585 45,000  Level Chicago Center
Tue 06:03:45 PM 41.7447 -88.8872 83° East 514 592 45,000  Level Chicago Center
Tue 06:04:47 PM 41.7603 -88.6969 84° East 520 598 45,000  Level Chicago Center
Tue 06:05:49 PM 41.7756 -88.5072 84° East 518 596 45,000  Level Chicago Center
Tue 06:06:51 PM 41.7906 -88.3144 84° East 522 601 45,000  Level Chicago Center
Tue 06:07:53 PM 41.8050 -88.1231 84° East 515 593 45,000  Level Chicago Center
Tue 06:08:55 PM 41.8181 -87.9317 85° East 513 590 45,000  Level Chicago Center
Tue 06:09:57 PM 41.8356 -87.7008 84° East 516 594 45,000  Level Chicago Center
Tue 06:11:00 PM 41.8489 -87.5078 85° East 519 597 45,000  Level Chicago Center
Tue 06:12:02 PM 41.8617 -87.3167 85° East 518 596 45,000  Level Chicago Center
Tue 06:13:04 PM 41.8758 -87.1236 84° East 521 600 45,000  Level Chicago Center
Tue 06:14:06 PM 41.8883 -86.9319 85° East 519 597 45,000  Level Chicago Center
Tue 06:15:08 PM 41.9014 -86.7019 86° East 518 596 45,000  Level Chicago Center
Tue 06:16:10 PM 41.9122 -86.5378 85° East 520 598 45,000  Level Chicago Center
Tue 06:17:12 PM 41.9272 -86.3050 85° East 522 601 45,000  Level Chicago Center
Tue 06:18:14 PM 41.9394 -86.1125 85° East 519 597 45,000  Level Chicago Center
Tue 06:19:16 PM 41.9506 -85.9181 86° East 519 597 45,000  Level Chicago Center
Tue 06:20:19 PM 41.9619 -85.7225 85° East 521 600 45,000  Level Chicago Center
Tue 06:21:21 PM 41.9742 -85.5258 85° East 523 602 45,000  Level Chicago Center
Tue 06:22:23 PM 41.9844 -85.3294 86° East 522 601 45,000  Level Chicago Center
Tue 06:23:25 PM 41.9944 -85.1194 86° East 525 604 45,000  Level Chicago Center
Tue 06:24:27 PM 42.0028 -84.9225 87° East 529 609 45,000  Level Chicago Center
Tue 06:25:29 PM 42.0119 -84.7283 86° East 524 603 45,000  Level Chicago Center
Tue 06:26:31 PM 42.0150 -84.4942 89° East 525 604 45,000  Level Chicago Center
Tue 06:27:23 PM 42.0169 -84.3453 89° East 518 596 45,000  Level Cleveland Center
Tue 06:28:23 PM 42.0133 -84.1328 91° East 518 596 45,000  Level Cleveland Center
Tue 06:29:23 PM 42.0131 -83.9369 90° East 518 596 45,000  Level Cleveland Center
Tue 06:30:23 PM 42.0144 -83.7414 89° East 518 596 45,000  Level Cleveland Center
Tue 06:31:23 PM 42.0156 -83.5458 89° East 518 596 45,000  Level Cleveland Center
Tue 06:32:23 PM 42.0142 -83.3528 90° East 518 596 45,000  Level Cleveland Center
Tue 06:33:23 PM 42.0103 -83.1542 91° East 518 596 45,000  Level Cleveland Center
Tue 06:34:23 PM 42.0103 -82.9586 90° East 523 602 45,000  Level Cleveland Center
Tue 06:35:23 PM 42.0100 -82.7631 90° East 523 602 45,000  Level Cleveland Center
Tue 06:36:23 PM 42.0075 -82.5672 91° East 518 596 45,000  Level Cleveland Center
Tue 06:37:23 PM 42.0003 -82.3742 93° East 518 596 45,000  Level Cleveland Center
Tue 06:38:23 PM 42.0011 -82.1758 90° East 518 596 45,000  Level Cleveland Center
Tue 06:39:23 PM 42.0033 -81.9997 89° East 518 596 45,000  Level Cleveland Center
Tue 06:40:23 PM 42.0014 -81.8014 91° East 518 596 45,000  Level Cleveland Center
Tue 06:41:23 PM 41.9992 -81.6031 91° East 518 596 45,000  Level Cleveland Center
Tue 06:42:23 PM 41.9944 -81.4100 92° East 523 602 45,000  Level Cleveland Center
Tue 06:43:23 PM 41.9875 -81.1922 92° East 528 608 45,000  Level Cleveland Center
Tue 06:44:23 PM 41.9842 -80.9939 91° East 528 608 45,000 -150 Level Cleveland Center
Tue 06:45:23 PM 41.9786 -80.8011 92° East 523 602 44,700 -700 Descending Cleveland Center
Tue 06:46:23 PM 41.9725 -80.6083 92° East 522 601 43,600 -850 Descending Cleveland Center
Tue 06:47:23 PM 41.9681 -80.4100 92° East 522 601 43,000 -300 Descending Cleveland Center
Tue 06:48:23 PM 41.9614 -80.2172 93° East 515 593 43,000  Level Cleveland Center
Tue 06:49:23 PM 41.9567 -80.0247 92° East 515 593 43,000  Level Cleveland Center
Tue 06:50:23 PM 41.9514 -79.8294 92° East 520 598 43,000  Level Cleveland Center
Tue 06:51:23 PM 41.9436 -79.6339 93° East 520 598 43,000  Level Cleveland Center
Tue 06:52:23 PM 41.9356 -79.4389 93° East 520 598 43,000  Level Cleveland Center
Tue 06:53:23 PM 41.9272 -79.2464 93° East 520 598 43,000  Level Cleveland Center
Tue 06:54:23 PM 41.9206 -79.0483 93° East 520 598 43,000  Level Cleveland Center
Tue 06:55:23 PM 41.9136 -78.8531 93° East 520 598 43,000  Level Cleveland Center
Tue 06:56:23 PM 41.9042 -78.6553 94° East 520 598 43,000  Level Cleveland Center
Tue 06:57:23 PM 41.8967 -78.4575 93° East 520 598 43,000  Level Cleveland Center
Tue 06:58:23 PM 41.8844 -78.2597 95° East 520 598 43,000 -150 Level Cleveland Center
Tue 06:59:23 PM 41.8761 -78.0622 93° East 525 604 42,700 -1,550 Descending Cleveland Center
Tue 07:00:23 PM 41.8633 -77.8703 95° East 525 604 39,900 -2,727 Descending Cleveland Center
Tue 07:01:13 PM 41.8325 -77.7222 106° East 512 589 37,700 -2,564 Descending New York Center
Tue 07:02:13 PM 41.7861 -77.5531 110° East 500 575 35,200 -1,328 Descending New York Center
Tue 07:03:15 PM 41.7394 -77.3814 110° East 488 562 35,000 -541 Descending New York Center
Tue 07:04:15 PM 41.6925 -77.2100 110° East 488 562 34,100 -966 Descending New York Center
Tue 07:05:13 PM 41.6492 -77.0478 110° East 499 574 33,100 -1,017 Descending New York Center
Tue 07:06:13 PM 41.6000 -76.8739 111° Southeast 504 580 32,100 -1,041 Descending New York Center
Tue 07:07:14 PM 41.5472 -76.6778 110° East 504 580 31,000 -1,041 Descending New York Center
Tue 07:08:14 PM 41.4997 -76.5017 110° East 504 580 30,000 -942 Descending New York Center
Tue 07:09:15 PM 41.4575 -76.3403 109° East 511 588 29,100 -1,785 Descending New York Center
Tue 07:10:15 PM 41.4075 -76.1592 110° East 511 588 26,400 -2,695 Descending New York Center
Tue 07:11:13 PM 41.3583 -76.0006 112° Southeast 493 567 23,800 -2,319 Descending New York Center
Tue 07:12:14 PM 41.3075 -75.8253 111° Southeast 467 537 21,800 -2,331 Descending New York Center
Tue 07:13:14 PM 41.2736 -75.6958 109° East 444 511 19,100 -1,934 Descending New York Center
Tue 07:14:15 PM 41.2197 -75.5344 114° Southeast 433 498 17,900 -1,983 Descending New York Center
Tue 07:15:15 PM 41.1828 -75.4161 112° Southeast 400 460 15,100 -3,000 Descending New York Center
Tue 07:16:13 PM 41.1339 -75.2778 115° Southeast 379 436 12,000 -2,800 Descending New York Center
Tue 07:17:15 PM 41.0964 -75.1653 114° Southeast 354 407 9,500 -2,118 Descending New York Center
Tue 07:18:12 PM 41.0667 -75.0669 112° Southeast 313 360 7,800 -1,678 Descending New York Center
Tue 07:19:13 PM 41.0450 -74.9803 108° East 283 326 6,200 -1,033 Descending New York Center
Tue 07:20:14 PM 41.0111 -74.8736 113° Southeast 276 318 5,700 -836 Descending New York Center
Tue 07:21:15 PM 41.0250 -74.7756 79° East 267 307 4,500 -1,210 Descending New York Center
Tue 07:22:13 PM 41.0364 -74.6856 80° East 261 300 3,300 -763 Descending New York Center
Tue 07:23:13 PM 40.9886 -74.6167 133° Southeast 222 255 3,000 -110 Descending New York Center
Tue 07:24:02 PM 40.9500 -74.5667 136° Southeast 264 304 3,100 52 Climbing New York TRACON
Tue 07:25:08 PM 40.8667 -74.5167 156° South 269 310 3,100  Level New York TRACON
Tue 07:26:02 PM 40.8167 -74.5000 166° South 263 303 3,100  Level New York TRACON
Tue 07:27:02 PM 40.7667 -74.4500 143° Southeast 212 244 3,100  Level New York TRACON
Tue 07:28:02 PM 40.7333 -74.3833 123° Southeast 175 201 3,100 -450 Level New York TRACON
Tue 07:29:02 PM 40.7333 -74.3333 90° East 183 211 2,200 -550 Descending New York TRACON
Tue 07:30:02 PM 40.7333 -74.2667 90° East 167 192 2,000 -300 Descending New York TRACON
Tue 07:31:02 PM 40.7500 -74.2167 66° East 162 186 1,600 -211 Descending New York TRACON
Tue 07:31:56 PM 40.7833 -74.1667 49° Northeast 166 191 1,600 -200 Level New York TRACON
Tue 07:33:02 PM 40.8167 -74.1167 49° Northeast 151 174 1,200 -550 Descending New York TRACON
Tue 07:33:56 PM 40.8333 -74.0833 57° Northeast 127 146 500 -778 Descending New York TRACON
Tue 07:35:00 PM 40.8500 -74.0500 52° Northeast  Level FlightAware Approximate
Tue 07:42:00 PM 40.8501 -74.0608 52° Northeast  Level Estimated
Tue 07:43:00 PM 40.8501 -74.0608 52° Northeast  Level Estimated

Login

Don't have an account? Register now (free) for customized features, flight alerts, and more!